sensor_id;sensor_type;location;lat;lon;timestamp;P1;durP1;ratioP1;P2;durP2;ratioP2
67274;SDS011;55463;52.324;5.122;2023-08-24T00:01:02;7.30;;;2.25;;
67274;SDS011;55463;52.324;5.122;2023-08-24T00:03:28;8.32;;;2.20;;
67274;SDS011;55463;52.324;5.122;2023-08-24T00:05:53;4.22;;;2.20;;
67274;SDS011;55463;52.324;5.122;2023-08-24T00:08:19;6.65;;;2.85;;
67274;SDS011;55463;52.324;5.122;2023-08-24T00:10:45;6.07;;;2.70;;
67274;SDS011;55463;52.324;5.122;2023-08-24T00:13:11;5.30;;;2.53;;
67274;SDS011;55463;52.324;5.122;2023-08-24T00:15:37;5.35;;;2.58;;
67274;SDS011;55463;52.324;5.122;2023-08-24T00:18:04;10.15;;;3.15;;
67274;SDS011;55463;52.324;5.122;2023-08-24T00:20:30;5.07;;;2.60;;
67274;SDS011;55463;52.324;5.122;2023-08-24T00:22:57;4.65;;;2.50;;
67274;SDS011;55463;52.324;5.122;2023-08-24T00:25:23;7.18;;;3.03;;
67274;SDS011;55463;52.324;5.122;2023-08-24T00:27:48;5.78;;;2.72;;
67274;SDS011;55463;52.324;5.122;2023-08-24T00:30:14;9.15;;;2.85;;
67274;SDS011;55463;52.324;5.122;2023-08-24T00:32:40;6.13;;;2.88;;
67274;SDS011;55463;52.324;5.122;2023-08-24T00:35:05;4.03;;;3.00;;
67274;SDS011;55463;52.324;5.122;2023-08-24T00:37:33;8.23;;;3.10;;
67274;SDS011;55463;52.324;5.122;2023-08-24T00:39:59;8.48;;;3.22;;
67274;SDS011;55463;52.324;5.122;2023-08-24T00:42:26;9.93;;;3.20;;
67274;SDS011;55463;52.324;5.122;2023-08-24T00:44:51;6.63;;;2.97;;
67274;SDS011;55463;52.324;5.122;2023-08-24T00:47:17;8.95;;;3.80;;
67274;SDS011;55463;52.324;5.122;2023-08-24T00:49:42;4.63;;;2.92;;
67274;SDS011;55463;52.324;5.122;2023-08-24T00:52:08;5.80;;;2.90;;
67274;SDS011;55463;52.324;5.122;2023-08-24T00:54:35;6.22;;;3.30;;
67274;SDS011;55463;52.324;5.122;2023-08-24T00:57:04;6.32;;;3.42;;
67274;SDS011;55463;52.324;5.122;2023-08-24T00:59:29;5.78;;;3.10;;
67274;SDS011;55463;52.324;5.122;2023-08-24T01:01:55;8.38;;;3.30;;
67274;SDS011;55463;52.324;5.122;2023-08-24T01:04:20;9.38;;;3.08;;
67274;SDS011;55463;52.324;5.122;2023-08-24T01:06:47;5.45;;;4.00;;
67274;SDS011;55463;52.324;5.122;2023-08-24T01:09:12;7.50;;;3.28;;
67274;SDS011;55463;52.324;5.122;2023-08-24T01:17:00;7.35;;;3.45;;
67274;SDS011;55463;52.324;5.122;2023-08-24T01:19:34;6.90;;;3.65;;
67274;SDS011;55463;52.324;5.122;2023-08-24T01:22:03;7.97;;;3.80;;
67274;SDS011;55463;52.324;5.122;2023-08-24T01:24:36;8.68;;;4.40;;
67274;SDS011;55463;52.324;5.122;2023-08-24T01:27:05;9.27;;;3.88;;
67274;SDS011;55463;52.324;5.122;2023-08-24T01:29:31;26.85;;;4.80;;
67274;SDS011;55463;52.324;5.122;2023-08-24T01:31:57;7.68;;;4.63;;
67274;SDS011;55463;52.324;5.122;2023-08-24T01:34:22;9.02;;;4.15;;
67274;SDS011;55463;52.324;5.122;2023-08-24T01:36:48;8.23;;;4.15;;
67274;SDS011;55463;52.324;5.122;2023-08-24T01:39:18;6.93;;;3.90;;
67274;SDS011;55463;52.324;5.122;2023-08-24T01:41:52;6.03;;;3.40;;
67274;SDS011;55463;52.324;5.122;2023-08-24T01:44:19;8.23;;;3.85;;
67274;SDS011;55463;52.324;5.122;2023-08-24T01:46:46;8.30;;;4.03;;
67274;SDS011;55463;52.324;5.122;2023-08-24T01:49:15;12.95;;;4.65;;
67274;SDS011;55463;52.324;5.122;2023-08-24T01:51:42;8.20;;;4.72;;
67274;SDS011;55463;52.324;5.122;2023-08-24T01:54:09;10.32;;;5.47;;
67274;SDS011;55463;52.324;5.122;2023-08-24T01:56:34;8.63;;;5.10;;
67274;SDS011;55463;52.324;5.122;2023-08-24T01:59:00;8.43;;;4.70;;
67274;SDS011;55463;52.324;5.122;2023-08-24T02:01:25;11.13;;;5.57;;
67274;SDS011;55463;52.324;5.122;2023-08-24T02:03:51;10.50;;;6.05;;
67274;SDS011;55463;52.324;5.122;2023-08-24T02:06:16;10.95;;;5.95;;
67274;SDS011;55463;52.324;5.122;2023-08-24T02:08:42;8.15;;;5.30;;
67274;SDS011;55463;52.324;5.122;2023-08-24T02:11:09;11.88;;;5.88;;
67274;SDS011;55463;52.324;5.122;2023-08-24T02:13:35;10.18;;;5.75;;
67274;SDS011;55463;52.324;5.122;2023-08-24T02:16:04;8.00;;;5.50;;
67274;SDS011;55463;52.324;5.122;2023-08-24T02:18:31;8.63;;;5.18;;
67274;SDS011;55463;52.324;5.122;2023-08-24T02:20:56;10.10;;;5.68;;
67274;SDS011;55463;52.324;5.122;2023-08-24T02:23:22;6.78;;;5.22;;
67274;SDS011;55463;52.324;5.122;2023-08-24T02:25:47;13.13;;;5.13;;
67274;SDS011;55463;52.324;5.122;2023-08-24T02:28:13;8.48;;;4.95;;
67274;SDS011;55463;52.324;5.122;2023-08-24T02:30:38;7.30;;;5.80;;
67274;SDS011;55463;52.324;5.122;2023-08-24T02:33:04;14.52;;;5.68;;
67274;SDS011;55463;52.324;5.122;2023-08-24T02:35:30;12.80;;;6.15;;
67274;SDS011;55463;52.324;5.122;2023-08-24T02:37:55;9.55;;;5.55;;
67274;SDS011;55463;52.324;5.122;2023-08-24T02:40:22;10.05;;;6.05;;
67274;SDS011;55463;52.324;5.122;2023-08-24T02:42:48;9.40;;;5.88;;
67274;SDS011;55463;52.324;5.122;2023-08-24T02:45:13;9.57;;;6.10;;
67274;SDS011;55463;52.324;5.122;2023-08-24T02:47:38;12.60;;;5.85;;
67274;SDS011;55463;52.324;5.122;2023-08-24T02:50:04;10.00;;;5.15;;
67274;SDS011;55463;52.324;5.122;2023-08-24T02:52:31;9.93;;;5.40;;
67274;SDS011;55463;52.324;5.122;2023-08-24T02:54:57;12.13;;;5.38;;
67274;SDS011;55463;52.324;5.122;2023-08-24T02:57:23;11.13;;;6.15;;
67274;SDS011;55463;52.324;5.122;2023-08-24T02:59:48;8.70;;;5.70;;
67274;SDS011;55463;52.324;5.122;2023-08-24T03:02:14;11.88;;;5.78;;
67274;SDS011;55463;52.324;5.122;2023-08-24T03:04:39;10.07;;;5.50;;
67274;SDS011;55463;52.324;5.122;2023-08-24T03:07:05;11.10;;;5.93;;
67274;SDS011;55463;52.324;5.122;2023-08-24T03:09:33;13.10;;;5.38;;
67274;SDS011;55463;52.324;5.122;2023-08-24T03:11:59;10.20;;;6.20;;
67274;SDS011;55463;52.324;5.122;2023-08-24T03:14:24;9.68;;;5.95;;
67274;SDS011;55463;52.324;5.122;2023-08-24T03:16:50;11.13;;;6.38;;
67274;SDS011;55463;52.324;5.122;2023-08-24T03:19:15;11.63;;;6.65;;
67274;SDS011;55463;52.324;5.122;2023-08-24T03:21:42;10.30;;;6.70;;
67274;SDS011;55463;52.324;5.122;2023-08-24T03:24:08;10.02;;;6.78;;
67274;SDS011;55463;52.324;5.122;2023-08-24T03:26:34;9.75;;;6.32;;
67274;SDS011;55463;52.324;5.122;2023-08-24T03:28:59;10.85;;;5.75;;
67274;SDS011;55463;52.324;5.122;2023-08-24T03:31:25;11.35;;;6.68;;
67274;SDS011;55463;52.324;5.122;2023-08-24T03:33:51;10.98;;;6.57;;
67274;SDS011;55463;52.324;5.122;2023-08-24T03:36:16;13.48;;;6.93;;
67274;SDS011;55463;52.324;5.122;2023-08-24T03:38:42;10.90;;;7.15;;
67274;SDS011;55463;52.324;5.122;2023-08-24T03:41:07;13.52;;;6.47;;
67274;SDS011;55463;52.324;5.122;2023-08-24T03:43:33;10.60;;;7.38;;
67274;SDS011;55463;52.324;5.122;2023-08-24T03:46:00;11.98;;;7.72;;
67274;SDS011;55463;52.324;5.122;2023-08-24T03:48:26;9.52;;;6.80;;
67274;SDS011;55463;52.324;5.122;2023-08-24T03:50:55;8.60;;;6.75;;
67274;SDS011;55463;52.324;5.122;2023-08-24T03:53:21;14.27;;;6.82;;
67274;SDS011;55463;52.324;5.122;2023-08-24T03:55:47;10.65;;;7.00;;
67274;SDS011;55463;52.324;5.122;2023-08-24T03:58:16;15.07;;;6.65;;
67274;SDS011;55463;52.324;5.122;2023-08-24T04:00:41;10.27;;;6.38;;
67274;SDS011;55463;52.324;5.122;2023-08-24T04:03:07;13.68;;;6.68;;
67274;SDS011;55463;52.324;5.122;2023-08-24T04:05:33;21.98;;;7.22;;
67274;SDS011;55463;52.324;5.122;2023-08-24T04:07:59;17.23;;;7.13;;
67274;SDS011;55463;52.324;5.122;2023-08-24T04:10:26;8.68;;;6.43;;
67274;SDS011;55463;52.324;5.122;2023-08-24T04:12:51;11.10;;;7.10;;
67274;SDS011;55463;52.324;5.122;2023-08-24T04:15:17;11.63;;;6.95;;
67274;SDS011;55463;52.324;5.122;2023-08-24T04:17:43;9.30;;;6.22;;
67274;SDS011;55463;52.324;5.122;2023-08-24T04:20:08;9.15;;;7.03;;
67274;SDS011;55463;52.324;5.122;2023-08-24T04:22:34;12.57;;;6.80;;
67274;SDS011;55463;52.324;5.122;2023-08-24T04:24:59;11.60;;;7.43;;
67274;SDS011;55463;52.324;5.122;2023-08-24T04:27:25;8.35;;;6.22;;
67274;SDS011;55463;52.324;5.122;2023-08-24T04:29:50;11.85;;;6.72;;
67274;SDS011;55463;52.324;5.122;2023-08-24T04:32:15;9.50;;;6.57;;
67274;SDS011;55463;52.324;5.122;2023-08-24T04:34:41;11.20;;;6.60;;
67274;SDS011;55463;52.324;5.122;2023-08-24T04:37:06;10.95;;;6.20;;
67274;SDS011;55463;52.324;5.122;2023-08-24T04:39:32;10.60;;;6.15;;
67274;SDS011;55463;52.324;5.122;2023-08-24T04:41:57;11.63;;;6.60;;
67274;SDS011;55463;52.324;5.122;2023-08-24T04:44:23;12.05;;;6.60;;
67274;SDS011;55463;52.324;5.122;2023-08-24T04:46:49;12.93;;;6.10;;
67274;SDS011;55463;52.324;5.122;2023-08-24T04:49:14;9.07;;;5.78;;
67274;SDS011;55463;52.324;5.122;2023-08-24T04:51:40;11.45;;;5.78;;
67274;SDS011;55463;52.324;5.122;2023-08-24T04:54:05;8.95;;;5.60;;
67274;SDS011;55463;52.324;5.122;2023-08-24T04:56:30;9.10;;;5.45;;
67274;SDS011;55463;52.324;5.122;2023-08-24T04:58:56;11.73;;;7.45;;
67274;SDS011;55463;52.324;5.122;2023-08-24T05:01:25;9.80;;;6.20;;
67274;SDS011;55463;52.324;5.122;2023-08-24T05:03:51;6.90;;;4.82;;
67274;SDS011;55463;52.324;5.122;2023-08-24T05:06:18;10.15;;;6.95;;
67274;SDS011;55463;52.324;5.122;2023-08-24T05:08:46;13.20;;;6.68;;
67274;SDS011;55463;52.324;5.122;2023-08-24T05:11:12;15.10;;;6.47;;
67274;SDS011;55463;52.324;5.122;2023-08-24T05:13:44;11.70;;;5.45;;
67274;SDS011;55463;52.324;5.122;2023-08-24T05:16:10;8.63;;;5.65;;
67274;SDS011;55463;52.324;5.122;2023-08-24T05:18:37;10.65;;;6.30;;
67274;SDS011;55463;52.324;5.122;2023-08-24T05:21:02;13.40;;;6.35;;
67274;SDS011;55463;52.324;5.122;2023-08-24T05:23:29;13.68;;;6.15;;
67274;SDS011;55463;52.324;5.122;2023-08-24T05:25:56;11.38;;;5.57;;
67274;SDS011;55463;52.324;5.122;2023-08-24T05:28:22;11.60;;;5.93;;
67274;SDS011;55463;52.324;5.122;2023-08-24T05:30:47;10.25;;;5.72;;
67274;SDS011;55463;52.324;5.122;2023-08-24T05:33:13;10.75;;;5.78;;
67274;SDS011;55463;52.324;5.122;2023-08-24T05:35:38;12.43;;;5.63;;
67274;SDS011;55463;52.324;5.122;2023-08-24T05:38:04;12.82;;;6.53;;
67274;SDS011;55463;52.324;5.122;2023-08-24T05:40:29;10.80;;;7.47;;
67274;SDS011;55463;52.324;5.122;2023-08-24T05:42:54;10.50;;;5.47;;
67274;SDS011;55463;52.324;5.122;2023-08-24T05:45:20;13.30;;;6.00;;
67274;SDS011;55463;52.324;5.122;2023-08-24T05:47:45;9.55;;;5.45;;
67274;SDS011;55463;52.324;5.122;2023-08-24T05:50:11;10.38;;;5.55;;
67274;SDS011;55463;52.324;5.122;2023-08-24T05:52:39;12.45;;;5.50;;
67274;SDS011;55463;52.324;5.122;2023-08-24T05:55:04;9.27;;;5.60;;
67274;SDS011;55463;52.324;5.122;2023-08-24T05:57:30;11.60;;;4.97;;
67274;SDS011;55463;52.324;5.122;2023-08-24T05:59:56;9.40;;;4.97;;
67274;SDS011;55463;52.324;5.122;2023-08-24T06:02:21;8.32;;;5.75;;
67274;SDS011;55463;52.324;5.122;2023-08-24T06:04:46;12.63;;;6.03;;
67274;SDS011;55463;52.324;5.122;2023-08-24T06:07:12;7.30;;;5.60;;
67274;SDS011;55463;52.324;5.122;2023-08-24T06:09:37;12.57;;;6.43;;
67274;SDS011;55463;52.324;5.122;2023-08-24T06:12:03;10.52;;;5.50;;
67274;SDS011;55463;52.324;5.122;2023-08-24T06:14:28;8.05;;;5.57;;
67274;SDS011;55463;52.324;5.122;2023-08-24T06:16:53;8.48;;;5.55;;
67274;SDS011;55463;52.324;5.122;2023-08-24T06:19:19;10.57;;;5.72;;
67274;SDS011;55463;52.324;5.122;2023-08-24T06:21:44;15.43;;;6.05;;
67274;SDS011;55463;52.324;5.122;2023-08-24T06:24:10;9.73;;;5.60;;
67274;SDS011;55463;52.324;5.122;2023-08-24T06:26:35;9.27;;;6.13;;
67274;SDS011;55463;52.324;5.122;2023-08-24T06:29:00;10.10;;;5.65;;
67274;SDS011;55463;52.324;5.122;2023-08-24T06:31:26;12.48;;;6.60;;
67274;SDS011;55463;52.324;5.122;2023-08-24T06:33:51;8.68;;;5.40;;
67274;SDS011;55463;52.324;5.122;2023-08-24T06:36:18;9.43;;;5.93;;
67274;SDS011;55463;52.324;5.122;2023-08-24T06:38:43;9.95;;;5.93;;
67274;SDS011;55463;52.324;5.122;2023-08-24T06:41:08;10.23;;;5.88;;
67274;SDS011;55463;52.324;5.122;2023-08-24T06:43:37;9.15;;;5.43;;
67274;SDS011;55463;52.324;5.122;2023-08-24T06:46:04;10.38;;;5.80;;
67274;SDS011;55463;52.324;5.122;2023-08-24T06:48:33;13.35;;;6.18;;
67274;SDS011;55463;52.324;5.122;2023-08-24T06:51:02;13.18;;;5.60;;
67274;SDS011;55463;52.324;5.122;2023-08-24T06:53:27;12.65;;;5.75;;
67274;SDS011;55463;52.324;5.122;2023-08-24T06:55:56;12.23;;;6.43;;
67274;SDS011;55463;52.324;5.122;2023-08-24T06:58:22;15.60;;;6.53;;
67274;SDS011;55463;52.324;5.122;2023-08-24T07:00:47;17.45;;;6.20;;
67274;SDS011;55463;52.324;5.122;2023-08-24T07:03:16;10.98;;;5.95;;
67274;SDS011;55463;52.324;5.122;2023-08-24T07:05:45;7.75;;;5.43;;
67274;SDS011;55463;52.324;5.122;2023-08-24T07:08:11;11.93;;;5.93;;
67274;SDS011;55463;52.324;5.122;2023-08-24T07:10:36;8.65;;;5.57;;
67274;SDS011;55463;52.324;5.122;2023-08-24T07:13:02;12.00;;;5.53;;
67274;SDS011;55463;52.324;5.122;2023-08-24T07:15:27;13.93;;;6.13;;
67274;SDS011;55463;52.324;5.122;2023-08-24T07:17:52;13.27;;;5.35;;
67274;SDS011;55463;52.324;5.122;2023-08-24T07:20:18;9.35;;;5.78;;
67274;SDS011;55463;52.324;5.122;2023-08-24T07:22:44;8.20;;;5.40;;
67274;SDS011;55463;52.324;5.122;2023-08-24T07:25:10;12.23;;;6.35;;
67274;SDS011;55463;52.324;5.122;2023-08-24T07:27:37;10.63;;;5.65;;
67274;SDS011;55463;52.324;5.122;2023-08-24T07:30:03;12.73;;;5.90;;
67274;SDS011;55463;52.324;5.122;2023-08-24T07:32:30;12.07;;;5.10;;
67274;SDS011;55463;52.324;5.122;2023-08-24T07:34:56;13.38;;;5.55;;
67274;SDS011;55463;52.324;5.122;2023-08-24T07:37:23;12.43;;;5.97;;
67274;SDS011;55463;52.324;5.122;2023-08-24T07:39:49;6.82;;;5.88;;
67274;SDS011;55463;52.324;5.122;2023-08-24T07:42:14;12.23;;;6.20;;
67274;SDS011;55463;52.324;5.122;2023-08-24T07:44:39;11.95;;;6.57;;
67274;SDS011;55463;52.324;5.122;2023-08-24T07:47:05;13.27;;;6.03;;
67274;SDS011;55463;52.324;5.122;2023-08-24T07:49:30;10.38;;;6.43;;
67274;SDS011;55463;52.324;5.122;2023-08-24T07:51:56;13.02;;;6.47;;
67274;SDS011;55463;52.324;5.122;2023-08-24T07:54:23;9.50;;;6.15;;
67274;SDS011;55463;52.324;5.122;2023-08-24T07:56:49;10.95;;;6.20;;
67274;SDS011;55463;52.324;5.122;2023-08-24T07:59:14;9.52;;;6.35;;
67274;SDS011;55463;52.324;5.122;2023-08-24T08:01:39;9.20;;;5.60;;
67274;SDS011;55463;52.324;5.122;2023-08-24T08:04:05;9.20;;;6.22;;
67274;SDS011;55463;52.324;5.122;2023-08-24T08:06:30;10.73;;;5.88;;
67274;SDS011;55463;52.324;5.122;2023-08-24T08:08:56;10.23;;;6.00;;
67274;SDS011;55463;52.324;5.122;2023-08-24T08:11:22;9.45;;;5.85;;
67274;SDS011;55463;52.324;5.122;2023-08-24T08:13:48;7.82;;;4.97;;
67274;SDS011;55463;52.324;5.122;2023-08-24T08:16:13;8.55;;;5.90;;
67274;SDS011;55463;52.324;5.122;2023-08-24T08:18:39;10.70;;;5.78;;
67274;SDS011;55463;52.324;5.122;2023-08-24T08:21:14;9.18;;;6.18;;
67274;SDS011;55463;52.324;5.122;2023-08-24T08:23:40;8.57;;;5.70;;
67274;SDS011;55463;52.324;5.122;2023-08-24T08:26:07;8.98;;;6.07;;
67274;SDS011;55463;52.324;5.122;2023-08-24T08:28:32;13.55;;;6.03;;
67274;SDS011;55463;52.324;5.122;2023-08-24T08:30:59;10.45;;;5.80;;
67274;SDS011;55463;52.324;5.122;2023-08-24T08:33:25;10.43;;;5.57;;
67274;SDS011;55463;52.324;5.122;2023-08-24T08:35:50;8.45;;;5.32;;
67274;SDS011;55463;52.324;5.122;2023-08-24T08:38:16;8.30;;;5.70;;
67274;SDS011;55463;52.324;5.122;2023-08-24T08:40:41;8.70;;;5.30;;
67274;SDS011;55463;52.324;5.122;2023-08-24T08:43:07;9.60;;;5.65;;
67274;SDS011;55463;52.324;5.122;2023-08-24T08:45:33;10.88;;;6.63;;
67274;SDS011;55463;52.324;5.122;2023-08-24T08:47:59;13.18;;;6.07;;
67274;SDS011;55463;52.324;5.122;2023-08-24T08:50:26;9.60;;;6.20;;
67274;SDS011;55463;52.324;5.122;2023-08-24T08:52:51;9.80;;;6.10;;
67274;SDS011;55463;52.324;5.122;2023-08-24T08:55:17;10.10;;;6.05;;
67274;SDS011;55463;52.324;5.122;2023-08-24T08:57:45;9.40;;;5.55;;
67274;SDS011;55463;52.324;5.122;2023-08-24T09:00:13;7.40;;;5.65;;
67274;SDS011;55463;52.324;5.122;2023-08-24T09:02:42;12.23;;;6.82;;
67274;SDS011;55463;52.324;5.122;2023-08-24T09:05:12;10.07;;;6.93;;
67274;SDS011;55463;52.324;5.122;2023-08-24T09:07:39;11.48;;;6.75;;
67274;SDS011;55463;52.324;5.122;2023-08-24T09:10:05;12.93;;;6.85;;
67274;SDS011;55463;52.324;5.122;2023-08-24T09:12:32;12.02;;;7.20;;
67274;SDS011;55463;52.324;5.122;2023-08-24T09:14:58;13.05;;;6.85;;
67274;SDS011;55463;52.324;5.122;2023-08-24T09:17:23;11.52;;;6.43;;
67274;SDS011;55463;52.324;5.122;2023-08-24T09:19:50;15.27;;;8.20;;
67274;SDS011;55463;52.324;5.122;2023-08-24T09:22:18;11.70;;;7.10;;
67274;SDS011;55463;52.324;5.122;2023-08-24T09:24:44;15.35;;;7.43;;
67274;SDS011;55463;52.324;5.122;2023-08-24T09:27:20;12.43;;;8.40;;
67274;SDS011;55463;52.324;5.122;2023-08-24T09:29:49;16.17;;;7.85;;
67274;SDS011;55463;52.324;5.122;2023-08-24T09:32:20;17.30;;;7.53;;
67274;SDS011;55463;52.324;5.122;2023-08-24T09:34:49;9.55;;;7.45;;
67274;SDS011;55463;52.324;5.122;2023-08-24T09:37:16;11.32;;;7.50;;
67274;SDS011;55463;52.324;5.122;2023-08-24T09:39:42;12.90;;;7.40;;
67274;SDS011;55463;52.324;5.122;2023-08-24T09:42:08;17.30;;;8.65;;
67274;SDS011;55463;52.324;5.122;2023-08-24T09:44:33;15.45;;;7.78;;
67274;SDS011;55463;52.324;5.122;2023-08-24T09:46:59;11.95;;;7.85;;
67274;SDS011;55463;52.324;5.122;2023-08-24T09:49:24;10.88;;;6.80;;
67274;SDS011;55463;52.324;5.122;2023-08-24T09:51:51;13.00;;;7.63;;
67274;SDS011;55463;52.324;5.122;2023-08-24T09:54:21;13.10;;;7.53;;
67274;SDS011;55463;52.324;5.122;2023-08-24T09:56:48;13.60;;;7.68;;
67274;SDS011;55463;52.324;5.122;2023-08-24T09:59:16;11.38;;;6.97;;
67274;SDS011;55463;52.324;5.122;2023-08-24T10:01:47;10.77;;;6.47;;
67274;SDS011;55463;52.324;5.122;2023-08-24T10:04:23;11.60;;;7.07;;
67274;SDS011;55463;52.324;5.122;2023-08-24T10:06:55;12.05;;;7.05;;
67274;SDS011;55463;52.324;5.122;2023-08-24T10:09:31;10.57;;;7.30;;
67274;SDS011;55463;52.324;5.122;2023-08-24T10:12:10;9.18;;;6.90;;
67274;SDS011;55463;52.324;5.122;2023-08-24T10:14:53;10.75;;;7.70;;
67274;SDS011;55463;52.324;5.122;2023-08-24T10:17:24;11.52;;;6.75;;
67274;SDS011;55463;52.324;5.122;2023-08-24T10:19:50;10.65;;;6.95;;
67274;SDS011;55463;52.324;5.122;2023-08-24T10:22:18;10.55;;;7.82;;
67274;SDS011;55463;52.324;5.122;2023-08-24T10:24:46;11.00;;;6.50;;
67274;SDS011;55463;52.324;5.122;2023-08-24T10:27:12;10.13;;;7.00;;
67274;SDS011;55463;52.324;5.122;2023-08-24T10:29:39;16.27;;;6.78;;
67274;SDS011;55463;52.324;5.122;2023-08-24T10:32:05;8.20;;;6.05;;
67274;SDS011;55463;52.324;5.122;2023-08-24T10:34:33;13.23;;;6.78;;
67274;SDS011;55463;52.324;5.122;2023-08-24T10:37:08;11.63;;;6.75;;
67274;SDS011;55463;52.324;5.122;2023-08-24T10:39:35;9.55;;;6.20;;
67274;SDS011;55463;52.324;5.122;2023-08-24T10:42:03;13.13;;;6.40;;
67274;SDS011;55463;52.324;5.122;2023-08-24T10:44:35;11.77;;;7.18;;
67274;SDS011;55463;52.324;5.122;2023-08-24T10:50:08;10.77;;;7.30;;
67274;SDS011;55463;52.324;5.122;2023-08-24T10:52:35;16.88;;;6.93;;
67274;SDS011;55463;52.324;5.122;2023-08-24T10:55:04;21.90;;;7.60;;
67274;SDS011;55463;52.324;5.122;2023-08-24T10:57:37;15.70;;;7.88;;
67274;SDS011;55463;52.324;5.122;2023-08-24T11:00:12;17.70;;;7.93;;
67274;SDS011;55463;52.324;5.122;2023-08-24T11:02:45;10.50;;;8.00;;
67274;SDS011;55463;52.324;5.122;2023-08-24T11:05:15;13.10;;;8.68;;
67274;SDS011;55463;52.324;5.122;2023-08-24T11:07:56;14.13;;;8.77;;
67274;SDS011;55463;52.324;5.122;2023-08-24T11:10:31;14.60;;;8.80;;
67274;SDS011;55463;52.324;5.122;2023-08-24T11:15:31;14.98;;;9.73;;
67274;SDS011;55463;52.324;5.122;2023-08-24T11:18:26;16.60;;;8.85;;
67274;SDS011;55463;52.324;5.122;2023-08-24T11:20:55;15.40;;;9.48;;
67274;SDS011;55463;52.324;5.122;2023-08-24T11:23:22;14.38;;;9.27;;
67274;SDS011;55463;52.324;5.122;2023-08-24T11:25:49;15.23;;;9.40;;
67274;SDS011;55463;52.324;5.122;2023-08-24T11:28:19;14.38;;;9.88;;
67274;SDS011;55463;52.324;5.122;2023-08-24T11:30:46;16.40;;;9.82;;
67274;SDS011;55463;52.324;5.122;2023-08-24T11:33:12;16.80;;;10.00;;
67274;SDS011;55463;52.324;5.122;2023-08-24T11:35:44;15.60;;;9.95;;
67274;SDS011;55463;52.324;5.122;2023-08-24T11:38:10;16.25;;;10.50;;
67274;SDS011;55463;52.324;5.122;2023-08-24T11:40:36;18.30;;;10.27;;
67274;SDS011;55463;52.324;5.122;2023-08-24T11:43:02;14.98;;;10.15;;
67274;SDS011;55463;52.324;5.122;2023-08-24T11:45:30;17.30;;;11.25;;
67274;SDS011;55463;52.324;5.122;2023-08-24T11:47:58;16.50;;;10.85;;
67274;SDS011;55463;52.324;5.122;2023-08-24T11:50:25;12.52;;;10.27;;
67274;SDS011;55463;52.324;5.122;2023-08-24T11:52:51;16.08;;;10.45;;
67274;SDS011;55463;52.324;5.122;2023-08-24T11:55:18;15.00;;;11.07;;
67274;SDS011;55463;52.324;5.122;2023-08-24T11:57:45;15.23;;;10.63;;
67274;SDS011;55463;52.324;5.122;2023-08-24T12:00:11;21.60;;;10.60;;
67274;SDS011;55463;52.324;5.122;2023-08-24T12:02:38;15.60;;;10.48;;
67274;SDS011;55463;52.324;5.122;2023-08-24T12:05:05;17.17;;;11.50;;
67274;SDS011;55463;52.324;5.122;2023-08-24T12:07:31;16.38;;;11.95;;
67274;SDS011;55463;52.324;5.122;2023-08-24T12:09:59;17.25;;;10.75;;
67274;SDS011;55463;52.324;5.122;2023-08-24T12:12:28;12.93;;;10.07;;
67274;SDS011;55463;52.324;5.122;2023-08-24T12:14:54;13.38;;;10.38;;
67274;SDS011;55463;52.324;5.122;2023-08-24T12:17:22;16.90;;;11.10;;
67274;SDS011;55463;52.324;5.122;2023-08-24T12:19:58;14.25;;;10.18;;
67274;SDS011;55463;52.324;5.122;2023-08-24T12:22:25;17.08;;;10.85;;
67274;SDS011;55463;52.324;5.122;2023-08-24T12:24:50;19.15;;;10.75;;
67274;SDS011;55463;52.324;5.122;2023-08-24T12:27:19;13.68;;;10.02;;
67274;SDS011;55463;52.324;5.122;2023-08-24T12:29:49;14.85;;;9.90;;
67274;SDS011;55463;52.324;5.122;2023-08-24T12:32:14;19.50;;;9.95;;
67274;SDS011;55463;52.324;5.122;2023-08-24T12:34:41;12.95;;;10.00;;
67274;SDS011;55463;52.324;5.122;2023-08-24T12:37:10;14.50;;;9.88;;
67274;SDS011;55463;52.324;5.122;2023-08-24T12:39:35;12.52;;;9.50;;
67274;SDS011;55463;52.324;5.122;2023-08-24T12:42:02;12.05;;;9.00;;
67274;SDS011;55463;52.324;5.122;2023-08-24T12:44:27;16.25;;;10.38;;
67274;SDS011;55463;52.324;5.122;2023-08-24T12:46:53;13.80;;;9.95;;
67274;SDS011;55463;52.324;5.122;2023-08-24T12:49:18;19.30;;;10.88;;
67274;SDS011;55463;52.324;5.122;2023-08-24T12:51:44;14.00;;;10.57;;
67274;SDS011;55463;52.324;5.122;2023-08-24T12:54:09;19.48;;;10.80;;
67274;SDS011;55463;52.324;5.122;2023-08-24T12:56:34;13.30;;;10.00;;
67274;SDS011;55463;52.324;5.122;2023-08-24T12:59:00;16.10;;;9.82;;
67274;SDS011;55463;52.324;5.122;2023-08-24T13:01:25;16.50;;;10.25;;
67274;SDS011;55463;52.324;5.122;2023-08-24T13:03:51;16.15;;;10.63;;
67274;SDS011;55463;52.324;5.122;2023-08-24T13:06:17;18.48;;;9.95;;
67274;SDS011;55463;52.324;5.122;2023-08-24T13:08:42;13.98;;;10.02;;
67274;SDS011;55463;52.324;5.122;2023-08-24T13:11:09;14.60;;;10.18;;
67274;SDS011;55463;52.324;5.122;2023-08-24T13:13:36;17.67;;;10.02;;
67274;SDS011;55463;52.324;5.122;2023-08-24T13:16:01;15.15;;;9.93;;
67274;SDS011;55463;52.324;5.122;2023-08-24T13:18:27;14.75;;;9.75;;
67274;SDS011;55463;52.324;5.122;2023-08-24T13:20:52;13.57;;;10.38;;
67274;SDS011;55463;52.324;5.122;2023-08-24T13:23:17;14.75;;;10.07;;
67274;SDS011;55463;52.324;5.122;2023-08-24T13:25:43;16.23;;;9.27;;
67274;SDS011;55463;52.324;5.122;2023-08-24T13:28:08;13.73;;;10.18;;
67274;SDS011;55463;52.324;5.122;2023-08-24T13:30:33;14.00;;;9.40;;
67274;SDS011;55463;52.324;5.122;2023-08-24T13:32:59;13.85;;;10.00;;
67274;SDS011;55463;52.324;5.122;2023-08-24T13:35:25;15.70;;;9.68;;
67274;SDS011;55463;52.324;5.122;2023-08-24T13:37:50;13.32;;;9.60;;
67274;SDS011;55463;52.324;5.122;2023-08-24T13:40:16;11.38;;;8.80;;
67274;SDS011;55463;52.324;5.122;2023-08-24T13:42:41;13.68;;;8.88;;
67274;SDS011;55463;52.324;5.122;2023-08-24T13:45:07;12.73;;;8.75;;
67274;SDS011;55463;52.324;5.122;2023-08-24T13:47:32;10.70;;;8.73;;
67274;SDS011;55463;52.324;5.122;2023-08-24T13:49:58;13.73;;;8.55;;
67274;SDS011;55463;52.324;5.122;2023-08-24T13:52:23;14.02;;;9.40;;
67274;SDS011;55463;52.324;5.122;2023-08-24T13:54:49;12.93;;;8.35;;
67274;SDS011;55463;52.324;5.122;2023-08-24T13:57:14;11.52;;;8.68;;
67274;SDS011;55463;52.324;5.122;2023-08-24T13:59:40;15.43;;;8.95;;
67274;SDS011;55463;52.324;5.122;2023-08-24T14:02:05;13.40;;;7.63;;
67274;SDS011;55463;52.324;5.122;2023-08-24T14:04:31;12.70;;;8.13;;
67274;SDS011;55463;52.324;5.122;2023-08-24T14:06:57;12.60;;;8.25;;
67274;SDS011;55463;52.324;5.122;2023-08-24T14:09:22;13.77;;;8.52;;
67274;SDS011;55463;52.324;5.122;2023-08-24T14:11:48;11.90;;;7.72;;
67274;SDS011;55463;52.324;5.122;2023-08-24T14:14:13;12.02;;;9.13;;
67274;SDS011;55463;52.324;5.122;2023-08-24T14:16:39;11.60;;;8.70;;
67274;SDS011;55463;52.324;5.122;2023-08-24T14:19:04;11.35;;;7.82;;
67274;SDS011;55463;52.324;5.122;2023-08-24T14:21:30;14.20;;;9.23;;
67274;SDS011;55463;52.324;5.122;2023-08-24T14:23:55;13.75;;;8.20;;
67274;SDS011;55463;52.324;5.122;2023-08-24T14:26:21;12.30;;;8.93;;
67274;SDS011;55463;52.324;5.122;2023-08-24T14:28:47;15.50;;;9.07;;
67274;SDS011;55463;52.324;5.122;2023-08-24T14:31:12;13.32;;;8.38;;
67274;SDS011;55463;52.324;5.122;2023-08-24T14:33:38;15.63;;;9.48;;
67274;SDS011;55463;52.324;5.122;2023-08-24T14:36:03;15.27;;;9.20;;
67274;SDS011;55463;52.324;5.122;2023-08-24T14:38:28;15.70;;;9.80;;
67274;SDS011;55463;52.324;5.122;2023-08-24T14:40:54;14.48;;;9.98;;
67274;SDS011;55463;52.324;5.122;2023-08-24T14:43:19;13.05;;;9.80;;
67274;SDS011;55463;52.324;5.122;2023-08-24T14:45:44;15.43;;;9.43;;